createdAt,value
2022-08-09T00:01:48.379Z,100.00
2022-08-09T00:04:35.373Z,100.00
2022-08-09T00:07:07.632Z,100.00
2022-08-09T00:09:40.018Z,100.00
2022-08-09T00:12:09.281Z,100.00
2022-08-09T00:14:51.063Z,100.00
2022-08-09T00:18:06.204Z,100.00
2022-08-09T00:20:16.685Z,100.00
2022-08-09T00:22:47.206Z,100.00
2022-08-09T00:25:15.857Z,100.00
2022-08-09T00:27:52.009Z,100.00
2022-08-09T00:30:26.182Z,100.00
2022-08-09T00:32:56.952Z,100.00
2022-08-09T00:35:26.371Z,100.00
2022-08-09T00:37:58.060Z,100.00
2022-08-09T00:40:30.227Z,100.00
2022-08-09T00:44:15.598Z,100.00
2022-08-09T00:45:53.959Z,100.00
2022-08-09T00:48:24.149Z,100.00
2022-08-09T00:50:54.049Z,100.00
2022-08-09T00:53:24.018Z,100.00
2022-08-09T00:56:05.226Z,100.00
2022-08-09T00:58:38.989Z,100.00
2022-08-09T01:01:16.214Z,100.00
2022-08-09T01:03:57.029Z,100.00
2022-08-09T01:06:54.419Z,100.00
2022-08-09T01:09:35.872Z,100.00
2022-08-09T01:12:18.754Z,100.00
2022-08-09T01:15:01.641Z,100.00
2022-08-09T01:17:39.863Z,100.00
2022-08-09T01:20:14.866Z,100.00
2022-08-09T01:24:01.841Z,100.00
2022-08-09T01:26:46.176Z,100.00
2022-08-09T01:29:17.092Z,100.00
2022-08-09T01:32:31.324Z,100.00
2022-08-09T01:34:39.182Z,100.00
2022-08-09T01:37:13.685Z,100.00
2022-08-09T01:39:45.480Z,100.00
2022-08-09T01:42:17.168Z,100.00
2022-08-09T01:44:48.629Z,100.00
2022-08-09T01:47:18.170Z,100.00
2022-08-09T01:49:50.774Z,100.00
2022-08-09T01:52:21.507Z,100.00
2022-08-09T01:54:56.476Z,100.00
2022-08-09T01:57:30.278Z,100.00
2022-08-09T02:00:34.479Z,100.00
2022-08-09T02:03:00.751Z,100.00
2022-08-09T02:05:38.158Z,100.00
2022-08-09T02:08:40.609Z,100.00
2022-08-09T02:11:17.206Z,100.00
2022-08-09T02:14:06.223Z,100.00
2022-08-09T02:16:58.983Z,100.00
2022-08-09T02:19:34.849Z,100.00
2022-08-09T02:22:14.812Z,100.00
2022-08-09T02:24:51.980Z,100.00
2022-08-09T02:27:27.452Z,100.00
2022-08-09T02:30:15.610Z,100.00
2022-08-09T02:32:48.474Z,100.00
2022-08-09T02:36:01.108Z,100.00
2022-08-09T02:38:27.804Z,100.00
2022-08-09T02:41:03.062Z,100.00
2022-08-09T02:43:53.465Z,100.00
2022-08-09T02:46:28.593Z,100.00
2022-08-09T02:49:01.444Z,100.00
2022-08-09T02:51:37.258Z,100.00
2022-08-09T02:54:13.993Z,100.00
2022-08-09T02:56:51.163Z,100.00
2022-08-09T02:59:26.596Z,100.00
2022-08-09T03:02:12.002Z,100.00
2022-08-09T03:04:42.829Z,100.00
2022-08-09T03:07:14.192Z,100.00
2022-08-09T03:09:53.955Z,100.00
2022-08-09T03:12:27.055Z,100.00
2022-08-09T03:14:56.340Z,100.00
2022-08-09T03:17:27.689Z,100.00
2022-08-09T03:20:03.506Z,100.00
2022-08-09T03:22:41.909Z,100.00
2022-08-09T03:25:56.791Z,100.00
2022-08-09T03:28:05.156Z,100.00
2022-08-09T03:30:40.399Z,100.00
2022-08-09T03:33:18.685Z,100.00
2022-08-09T03:36:15.707Z,100.00
2022-08-09T03:38:41.909Z,100.00
2022-08-09T03:41:15.376Z,100.00
2022-08-09T03:44:03.496Z,100.00
2022-08-09T03:46:36.106Z,100.00
2022-08-09T03:49:08.957Z,100.00
2022-08-09T03:51:56.962Z,100.00
2022-08-09T03:54:32.132Z,100.00
2022-08-09T03:57:18.725Z,100.00
2022-08-09T03:59:54.211Z,100.00
2022-08-09T04:02:28.194Z,100.00
2022-08-09T04:05:06.398Z,100.00
2022-08-09T04:07:52.440Z,100.00
2022-08-09T04:10:29.315Z,100.00
2022-08-09T04:13:04.542Z,100.00
2022-08-09T04:16:17.884Z,100.00
2022-08-09T04:18:22.264Z,100.00
2022-08-09T04:20:55.416Z,100.00
2022-08-09T04:23:24.700Z,100.00
2022-08-09T04:25:54.780Z,100.00
2022-08-09T04:28:33.180Z,100.00
2022-08-09T04:31:07.881Z,100.00
2022-08-09T04:33:52.407Z,100.00
2022-08-09T04:36:29.322Z,100.00
2022-08-09T04:38:59.704Z,100.00
2022-08-09T04:41:32.801Z,100.00
2022-08-09T04:44:05.705Z,100.00
2022-08-09T04:46:57.421Z,100.00
2022-08-09T04:49:40.820Z,100.00
2022-08-09T04:52:18.466Z,100.00
2022-08-09T04:54:52.320Z,100.00
2022-08-09T04:57:24.325Z,100.00
2022-08-09T04:59:54.294Z,100.00
2022-08-09T05:02:23.801Z,100.00
2022-08-09T05:04:56.515Z,100.00
2022-08-09T05:07:27.680Z,100.00
2022-08-09T05:09:57.735Z,100.00
2022-08-09T05:12:31.166Z,100.00
2022-08-09T05:15:11.806Z,100.00
2022-08-09T05:18:38.008Z,100.00
2022-08-09T05:20:40.823Z,100.00
2022-08-09T05:23:54.845Z,100.00
2022-08-09T05:25:58.897Z,100.00
2022-08-09T05:28:27.431Z,100.00
2022-08-09T05:30:56.127Z,100.00
2022-08-09T05:33:33.194Z,100.00
2022-08-09T05:36:03.952Z,100.00
2022-08-09T05:38:34.014Z,100.00
2022-08-09T05:41:08.436Z,100.00
2022-08-09T05:43:45.176Z,100.00
2022-08-09T05:46:17.370Z,100.00
2022-08-09T05:48:58.540Z,100.00
2022-08-09T05:51:42.418Z,100.00
2022-08-09T05:54:17.922Z,100.00
2022-08-09T05:56:55.379Z,100.00
2022-08-09T05:59:25.284Z,100.00
2022-08-09T06:01:58.811Z,96.04
2022-08-09T06:04:34.879Z,93.37
2022-08-09T06:07:04.089Z,87.32
2022-08-09T06:09:54.468Z,82.29
2022-08-09T06:12:22.189Z,92.56
2022-08-09T06:14:54.950Z,98.61
2022-08-09T06:17:27.214Z,100.00
2022-08-09T06:20:08.954Z,100.00
2022-08-09T06:22:38.285Z,100.00
2022-08-09T06:25:12.427Z,100.00
2022-08-09T06:27:51.328Z,100.00
2022-08-09T06:30:20.888Z,100.00
2022-08-09T06:32:59.458Z,100.00
2022-08-09T06:35:56.002Z,100.00
2022-08-09T06:38:18.037Z,100.00
2022-08-09T06:40:49.011Z,100.00
2022-08-09T06:43:23.466Z,100.00
2022-08-09T06:46:06.493Z,100.00
2022-08-09T06:48:42.862Z,100.00
2022-08-09T06:51:12.672Z,100.00
2022-08-09T06:53:43.138Z,100.00
2022-08-09T06:56:13.484Z,100.00
2022-08-09T07:00:50.511Z,100.00
2022-08-09T07:01:35.782Z,100.00
2022-08-09T07:04:20.986Z,100.00
2022-08-09T07:06:53.118Z,100.00
2022-08-09T07:09:55.582Z,100.00
2022-08-09T07:12:13.784Z,100.00
2022-08-09T07:14:50.731Z,100.00
2022-08-09T07:17:22.145Z,100.00
2022-08-09T07:19:55.246Z,100.00
2022-08-09T07:22:34.413Z,100.00
2022-08-09T07:25:05.075Z,100.00
2022-08-09T07:27:42.642Z,100.00
2022-08-09T07:30:14.826Z,100.00
2022-08-09T07:32:43.848Z,100.00
2022-08-09T07:35:14.966Z,100.00
2022-08-09T07:37:46.166Z,100.00
2022-08-09T07:40:20.486Z,100.00
2022-08-09T07:42:57.053Z,100.00
2022-08-09T07:45:37.513Z,100.00
2022-08-09T07:48:28.605Z,100.00
2022-08-09T07:51:09.987Z,100.00
2022-08-09T07:54:07.390Z,100.00
2022-08-09T07:56:44.876Z,100.00
2022-08-09T07:59:33.916Z,98.98
2022-08-09T08:02:03.550Z,98.96
2022-08-09T08:04:34.089Z,96.16
2022-08-09T08:07:21.593Z,95.65
2022-08-09T08:09:54.940Z,92.82
2022-08-09T08:12:33.815Z,89.76
2022-08-09T08:15:03.861Z,89.61
2022-08-09T08:17:52.155Z,91.91
2022-08-09T08:20:29.520Z,91.48
2022-08-09T08:23:06.546Z,85.08
2022-08-09T08:25:53.932Z,84.51
2022-08-09T08:28:35.450Z,85.76
2022-08-09T08:31:13.835Z,84.12
2022-08-09T08:33:52.923Z,83.35
2022-08-09T08:36:28.624Z,82.24
2022-08-09T08:38:58.526Z,82.45
2022-08-09T08:41:50.343Z,82.07
2022-08-09T08:44:27.515Z,79.23
2022-08-09T08:47:04.993Z,79.94
2022-08-09T08:49:48.657Z,80.51
2022-08-09T08:52:52.818Z,82.16
2022-08-09T08:55:09.330Z,86.47
2022-08-09T08:57:38.731Z,87.74
2022-08-09T09:00:16.932Z,87.59
2022-08-09T09:02:55.402Z,86.87
2022-08-09T09:05:57.772Z,84.19
2022-08-09T09:08:30.515Z,84.31
2022-08-09T09:11:04.202Z,81.24
2022-08-09T09:13:55.903Z,79.42
2022-08-09T09:16:29.742Z,77.88
2022-08-09T09:19:36.903Z,76.70
2022-08-09T09:22:11.720Z,75.46
2022-08-09T09:24:44.906Z,74.16
2022-08-09T09:27:47.235Z,73.50
2022-08-09T09:30:27.504Z,70.08
2022-08-09T09:33:13.874Z,71.88
2022-08-09T09:36:01.455Z,70.90
2022-08-09T09:38:46.838Z,70.91
2022-08-09T09:41:48.674Z,69.84
2022-08-09T09:44:27.884Z,67.15
2022-08-09T09:47:08.986Z,68.22
2022-08-09T09:50:13.245Z,69.89
2022-08-09T09:52:37.297Z,71.21
2022-08-09T09:55:27.713Z,70.05
2022-08-09T09:58:15.647Z,65.86
2022-08-09T10:00:53.852Z,62.30
2022-08-09T10:03:57.630Z,64.72
2022-08-09T10:06:32.479Z,61.20
2022-08-09T10:09:11.768Z,61.06
2022-08-09T10:12:12.434Z,60.85
2022-08-09T10:14:48.792Z,61.42
2022-08-09T10:17:51.097Z,62.86
2022-08-09T10:20:36.061Z,59.74
2022-08-09T10:23:20.294Z,59.53
2022-08-09T10:26:05.972Z,61.36
2022-08-09T10:28:40.870Z,58.45
2022-08-09T10:34:10.761Z,59.15
2022-08-09T10:36:56.719Z,59.16
2022-08-09T10:39:28.694Z,56.72
2022-08-09T10:41:58.663Z,55.29
2022-08-09T10:44:30.368Z,54.59
2022-08-09T10:48:26.052Z,54.98
2022-08-09T10:50:52.109Z,54.33
2022-08-09T10:53:46.714Z,56.77
2022-08-09T10:56:25.610Z,54.94
2022-08-09T10:58:57.455Z,53.82
2022-08-09T11:03:13.673Z,53.18
2022-08-09T11:04:32.655Z,51.81
2022-08-09T11:07:57.869Z,51.07
2022-08-09T11:10:31.956Z,51.67
2022-08-09T11:13:53.693Z,51.28
2022-08-09T11:16:37.968Z,49.80
2022-08-09T11:19:10.649Z,51.87
2022-08-09T11:21:57.485Z,52.04
2022-08-09T11:25:04.546Z,50.50
2022-08-09T11:28:05.433Z,50.27
2022-08-09T11:30:36.520Z,48.77
2022-08-09T11:33:26.372Z,49.70
2022-08-09T11:35:58.666Z,48.59
2022-08-09T11:38:33.189Z,47.85
2022-08-09T11:41:38.180Z,48.78
2022-08-09T11:44:09.304Z,48.11
2022-08-09T11:46:59.600Z,45.98
2022-08-09T11:50:56.582Z,45.50
2022-08-09T11:53:55.059Z,45.70
2022-08-09T11:56:42.314Z,44.79
2022-08-09T11:59:30.715Z,44.66
2022-08-09T12:02:21.255Z,43.34
2022-08-09T12:04:58.733Z,41.13
2022-08-09T12:07:41.161Z,40.99
2022-08-09T12:10:14.167Z,44.59
2022-08-09T12:13:03.724Z,43.62
2022-08-09T12:15:52.221Z,45.15
2022-08-09T12:18:29.663Z,43.59
2022-08-09T12:21:02.674Z,43.84
2022-08-09T12:23:56.454Z,42.67
2022-08-09T12:26:25.806Z,43.41
2022-08-09T12:29:13.567Z,43.48
2022-08-09T12:32:02.490Z,42.90
2022-08-09T12:34:36.773Z,41.23
2022-08-09T12:37:21.983Z,41.24
2022-08-09T12:40:07.729Z,41.59
2022-08-09T12:42:37.855Z,40.63
2022-08-09T12:45:33.706Z,40.52
2022-08-09T12:47:58.801Z,40.46
2022-08-09T12:50:28.606Z,40.56
2022-08-09T12:53:17.607Z,38.95
2022-08-09T12:56:16.129Z,39.88
2022-08-09T12:58:42.551Z,40.54
2022-08-09T13:01:26.890Z,39.95
2022-08-09T13:04:02.299Z,39.54
2022-08-09T13:06:35.669Z,39.60
2022-08-09T13:09:13.585Z,39.62
2022-08-09T13:11:46.598Z,39.45
2022-08-09T13:14:41.026Z,39.38
2022-08-09T13:17:44.274Z,38.39
2022-08-09T13:20:17.486Z,39.80
2022-08-09T13:23:02.167Z,39.39
2022-08-09T13:25:52.910Z,39.06
2022-08-09T13:28:34.198Z,39.47
2022-08-09T13:32:13.314Z,38.82
2022-08-09T13:33:57.266Z,37.99
2022-08-09T13:36:40.754Z,38.38
2022-08-09T13:41:19.533Z,38.20
2022-08-09T13:42:03.223Z,38.71
2022-08-09T13:44:35.024Z,37.94
2022-08-09T13:47:26.616Z,38.66
2022-08-09T13:49:57.450Z,37.85
2022-08-09T13:52:30.163Z,37.94
2022-08-09T13:55:02.063Z,38.31
2022-08-09T13:57:40.334Z,37.11
2022-08-09T14:00:16.117Z,37.42
2022-08-09T14:03:16.894Z,39.02
2022-08-09T14:06:00.479Z,39.37
2022-08-09T14:08:26.927Z,39.00
2022-08-09T14:10:56.662Z,38.80
2022-08-09T14:13:28.206Z,38.79
2022-08-09T14:16:19.101Z,38.30
2022-08-09T14:18:51.800Z,37.25
2022-08-09T14:21:24.007Z,37.30
2022-08-09T14:23:57.130Z,36.47
2022-08-09T14:26:32.127Z,35.94
2022-08-09T14:29:07.824Z,35.67
2022-08-09T14:31:55.613Z,36.29
2022-08-09T14:34:27.341Z,36.76
2022-08-09T14:37:06.872Z,36.09
2022-08-09T14:39:45.373Z,36.70
2022-08-09T14:42:30.922Z,36.86
2022-08-09T14:46:54.364Z,36.30
2022-08-09T14:47:58.319Z,36.23
2022-08-09T14:50:31.547Z,36.98
2022-08-09T14:53:02.146Z,36.12
2022-08-09T14:55:32.553Z,35.35
2022-08-09T14:58:03.801Z,34.93
2022-08-09T15:00:35.208Z,35.01
2022-08-09T15:03:08.836Z,34.07
2022-08-09T15:05:40.362Z,34.62
2022-08-09T15:08:19.812Z,34.74
2022-08-09T15:11:00.628Z,34.22
2022-08-09T15:13:48.513Z,34.58
2022-08-09T15:16:22.583Z,35.82
2022-08-09T15:18:52.605Z,35.66
2022-08-09T15:22:01.866Z,35.98
2022-08-09T15:24:17.461Z,35.89
2022-08-09T15:26:47.841Z,35.65
2022-08-09T15:30:56.021Z,34.81
2022-08-09T15:32:29.450Z,35.94
2022-08-09T15:35:01.371Z,35.98
2022-08-09T15:37:38.155Z,35.45
2022-08-09T15:40:32.005Z,36.01
2022-08-09T15:43:01.865Z,35.38
2022-08-09T15:45:31.333Z,34.89
2022-08-09T15:48:29.466Z,36.03
2022-08-09T15:51:29.973Z,36.15
2022-08-09T15:54:03.155Z,35.32
2022-08-09T15:56:36.770Z,35.24
2022-08-09T15:59:05.873Z,36.24
2022-08-09T16:01:35.783Z,35.03
2022-08-09T16:04:04.760Z,33.91
2022-08-09T16:06:37.415Z,33.71
2022-08-09T16:09:06.920Z,34.02
2022-08-09T16:16:13.509Z,34.71
2022-08-09T16:18:45.657Z,34.80
2022-08-09T16:21:17.689Z,35.20
2022-08-09T16:24:01.704Z,35.90
2022-08-09T16:26:34.921Z,36.34
2022-08-09T16:29:10.419Z,36.19
2022-08-09T16:32:20.065Z,36.04
2022-08-09T16:34:54.845Z,35.00
2022-08-09T16:37:20.494Z,35.08
2022-08-09T16:40:12.908Z,34.71
2022-08-09T16:42:44.903Z,34.40
2022-08-09T16:45:17.448Z,34.27
2022-08-09T16:48:40.194Z,34.36
2022-08-09T16:50:35.400Z,34.48
2022-08-09T16:53:09.049Z,34.70
2022-08-09T16:55:59.625Z,35.58
2022-08-09T16:58:29.896Z,35.19
2022-08-09T17:01:05.211Z,36.96
2022-08-09T17:03:33.977Z,36.96
2022-08-09T17:06:08.006Z,37.13
2022-08-09T17:09:02.740Z,36.93
2022-08-09T17:11:42.466Z,37.35
2022-08-09T17:14:25.447Z,37.11
2022-08-09T17:17:00.125Z,37.00
2022-08-09T17:19:47.670Z,37.03
2022-08-09T17:22:24.229Z,36.94
2022-08-09T17:25:03.203Z,36.55
2022-08-09T17:27:38.165Z,37.88
2022-08-09T17:30:12.960Z,38.04
2022-08-09T17:32:44.400Z,38.51
2022-08-09T17:35:15.039Z,38.63
2022-08-09T17:38:10.131Z,38.84
2022-08-09T17:40:34.947Z,38.18
2022-08-09T17:43:32.819Z,38.69
2022-08-09T17:46:02.632Z,38.47
2022-08-09T17:48:33.001Z,39.04
2022-08-09T17:51:10.093Z,38.93
2022-08-09T17:53:51.868Z,39.84
2022-08-09T17:56:27.870Z,40.01
2022-08-09T17:59:01.052Z,39.56
2022-08-09T18:02:03.737Z,39.99
2022-08-09T18:04:22.459Z,40.24
2022-08-09T18:06:55.807Z,40.53
2022-08-09T18:09:40.498Z,40.73
2022-08-09T18:12:19.452Z,40.54
2022-08-09T18:14:54.635Z,40.65
2022-08-09T18:18:01.526Z,40.84
2022-08-09T18:20:59.346Z,41.13
2022-08-09T18:23:07.321Z,41.34
2022-08-09T18:25:53.062Z,41.44
2022-08-09T18:30:40.546Z,41.60
2022-08-09T18:31:32.185Z,42.08
2022-08-09T18:34:09.691Z,41.99
2022-08-09T18:36:38.761Z,42.05
2022-08-09T18:39:16.175Z,42.15
2022-08-09T18:41:52.588Z,42.16
2022-08-09T18:44:25.662Z,42.46
2022-08-09T18:47:05.424Z,42.23
2022-08-09T18:49:43.149Z,42.79
2022-08-09T18:52:24.624Z,43.08
2022-08-09T18:54:53.778Z,43.16
2022-08-09T18:57:23.876Z,43.57
2022-08-09T18:59:57.810Z,43.54
2022-08-09T19:02:32.481Z,43.63
2022-08-09T19:05:14.748Z,43.90
2022-08-09T19:07:59.410Z,44.59
2022-08-09T19:10:39.833Z,45.11
2022-08-09T19:13:22.615Z,45.35
2022-08-09T19:15:55.686Z,46.30
2022-08-09T19:18:33.710Z,46.30
2022-08-09T19:21:08.824Z,46.62
2022-08-09T19:24:33.356Z,46.98
2022-08-09T19:26:34.668Z,47.49
2022-08-09T19:29:09.778Z,47.75
2022-08-09T19:31:49.572Z,48.05
2022-08-09T19:34:24.620Z,49.58
2022-08-09T19:36:55.699Z,49.78
2022-08-09T19:39:28.880Z,50.33
2022-08-09T19:42:03.793Z,50.67
2022-08-09T19:44:33.118Z,50.80
2022-08-09T19:47:03.842Z,51.31
2022-08-09T19:50:09.569Z,52.23
2022-08-09T19:52:22.405Z,52.26
2022-08-09T19:54:53.753Z,53.45
2022-08-09T19:57:25.707Z,54.45
2022-08-09T19:59:59.366Z,54.39
2022-08-09T20:04:16.821Z,55.82
2022-08-09T20:05:30.117Z,55.47
2022-08-09T20:08:16.044Z,55.63
2022-08-09T20:10:53.804Z,55.43
2022-08-09T20:13:22.202Z,56.01
2022-08-09T20:16:32.902Z,55.46
2022-08-09T20:19:03.683Z,56.46
2022-08-09T20:21:54.854Z,57.65
2022-08-09T20:24:29.913Z,57.60
2022-08-09T20:27:08.060Z,56.62
2022-08-09T20:29:39.361Z,56.99
2022-08-09T20:32:30.153Z,61.68
2022-08-09T20:34:58.252Z,58.28
2022-08-09T20:38:18.936Z,58.92
2022-08-09T20:40:26.296Z,56.73
2022-08-09T20:42:59.895Z,58.50
2022-08-09T20:46:00.402Z,58.41
2022-08-09T20:48:31.712Z,60.68
2022-08-09T20:51:03.137Z,57.64
2022-08-09T20:53:36.992Z,58.16
2022-08-09T20:56:20.311Z,60.86
2022-08-09T20:58:58.687Z,62.21
2022-08-09T21:01:34.113Z,61.15
2022-08-09T21:05:51.204Z,62.01
2022-08-09T21:07:11.982Z,61.09
2022-08-09T21:09:45.813Z,60.25
2022-08-09T21:14:46.162Z,60.51
2022-08-09T21:18:21.808Z,61.82
2022-08-09T21:20:23.008Z,63.16
2022-08-09T21:22:55.569Z,64.21
2022-08-09T21:25:44.310Z,64.97
2022-08-09T21:28:35.075Z,64.37
2022-08-09T21:31:16.621Z,66.59
2022-08-09T21:33:50.788Z,65.93
2022-08-09T21:36:28.703Z,66.03
2022-08-09T21:38:58.817Z,67.57
2022-08-09T21:42:04.188Z,70.54
2022-08-09T21:44:33.867Z,69.06
2022-08-09T21:47:05.721Z,68.04
2022-08-09T21:49:39.589Z,70.40
2022-08-09T21:52:14.690Z,73.41
2022-08-09T21:54:50.513Z,72.06
2022-08-09T21:57:25.449Z,76.48
2022-08-09T22:00:15.001Z,74.10
2022-08-09T22:02:44.094Z,74.25
2022-08-09T22:05:23.603Z,76.42
2022-08-09T22:07:54.241Z,80.06
2022-08-09T22:10:24.093Z,78.32
2022-08-09T22:12:54.090Z,82.86
2022-08-09T22:15:23.497Z,84.36
2022-08-09T22:18:04.071Z,83.18
2022-08-09T22:20:32.482Z,84.26
2022-08-09T22:23:02.268Z,83.21
2022-08-09T22:26:07.033Z,82.70
2022-08-09T22:28:32.660Z,85.37
2022-08-09T22:31:02.482Z,86.97
2022-08-09T22:33:42.616Z,86.35
2022-08-09T22:36:19.259Z,89.36
2022-08-09T22:38:48.783Z,91.73
2022-08-09T22:41:17.605Z,90.45
2022-08-09T22:44:03.443Z,90.65
2022-08-09T22:48:18.731Z,91.86
2022-08-09T22:49:22.664Z,92.53
2022-08-09T22:51:57.494Z,92.91
2022-08-09T22:54:27.515Z,94.73
2022-08-09T22:56:58.653Z,93.02
2022-08-09T22:59:58.468Z,94.11
2022-08-09T23:02:20.370Z,96.78
2022-08-09T23:04:53.322Z,100.00
2022-08-09T23:08:22.665Z,100.00
2022-08-09T23:10:30.938Z,98.51
2022-08-09T23:13:00.227Z,100.00
2022-08-09T23:15:30.914Z,100.00
2022-08-09T23:17:59.472Z,99.01
2022-08-09T23:20:28.760Z,99.10
2022-08-09T23:22:57.188Z,99.73
2022-08-09T23:25:25.672Z,100.00
2022-08-09T23:27:58.417Z,100.00
2022-08-09T23:30:51.370Z,97.48
2022-08-09T23:33:20.733Z,97.53
2022-08-09T23:36:07.120Z,95.99
2022-08-09T23:38:48.997Z,96.39
2022-08-09T23:41:27.434Z,97.04
2022-08-09T23:43:59.213Z,98.27
2022-08-09T23:46:30.437Z,96.95
2022-08-09T23:48:59.163Z,99.98
2022-08-09T23:51:27.889Z,99.97
2022-08-09T23:54:02.952Z,99.17
2022-08-09T23:56:52.145Z,100.00
2022-08-09T23:59:21.526Z,100.00
